Palestine, TX

8:09 AM CDT on August 25, 2016 (GMT -0500)
Westwood | | Change Station

Elev 422 ft 31.75 °N, 95.66 °W | Updated 21 seconds ago

Overcast
Overcast
77.4 °F
Feels Like 79 °F
N
0.0
Wind Variable Wind from SSW
Gusts 0.0 mph

Today
High -- | Low -- °F
--% Chance of Precip.
Yesterday
High -- | Low -- °F
Precip. -- in
Pressure 30.12 in
Visibility 4.0 miles
Clouds Overcast 400 ft
Heat Index 79 °F
Dew Point 76 °F
Humidity 96%
Rainfall 0.00 in
Snow Depth Not available.
6:54 AM 7:54 PM
Last Quarter, 46% visible
METAR KPSN 251255Z AUTO 00000KT 4SM BR OVC004 24/24 A3012 RMK AO2 T02460246
Pressure 30.12 in
Visibility 4.0 miles
Clouds Overcast 400 ft
Heat Index 79 °F
Dew Point 76 °F
Humidity 96%
Rainfall 0.00 in
Snow Depth Not available.
6:54 AM 7:54 PM
Last Quarter, 46% visible
METAR KPSN 251255Z AUTO 00000KT 4SM BR OVC004 24/24 A3012 RMK AO2 T02460246

10-Day Weather Forecast

Almanac

Astronomy

Aug. 25, 2016 Rise Set
Actual Time
Civil Twilight
Nautical Twilight
Astronomical Twilight
Moon
Length of Visible Light
Length of Day
Tomorrow will be .
, % of the Moon is Illuminated

Today's Extremes

State Highs State Lows

Community

WunderPhotos

Upload Photos

1,934,837 photos uploaded!

WunderBlog® & News

Nearby

Air Quality

  Air Quality AQ Index Pollutant
Not available.

Snow Depth

Station Depth Elevation

Earthquake Activity

City Distance Mag. Time & Date
Minimum magnitude displayed is 2.5.

Coastal Water Temperatures

Place Temperature

Stations

Nearby Weather Stations

Station Location Temp. Windchill Dew Point Humidity Wind Precip. Elev Updated Type
                   

Watches & Warnings

There are currently no watches in effect.